createdAt,value
2018-11-05T00:01:41.563Z,6.80
2018-11-05T00:04:10.535Z,6.70
2018-11-05T00:06:39.622Z,6.70
2018-11-05T00:09:10.010Z,6.60
2018-11-05T00:11:38.971Z,6.60
2018-11-05T00:14:08.663Z,6.50
2018-11-05T00:16:37.954Z,6.40
2018-11-05T00:19:07.233Z,6.40
2018-11-05T00:21:36.225Z,6.40
2018-11-05T00:24:05.461Z,6.50
2018-11-05T00:26:34.437Z,6.50
2018-11-05T00:29:03.363Z,6.50
2018-11-05T00:31:32.324Z,6.50
2018-11-05T00:34:01.242Z,6.60
2018-11-05T00:36:30.274Z,6.60
2018-11-05T00:38:59.373Z,6.60
2018-11-05T00:41:28.374Z,6.60
2018-11-05T00:43:57.361Z,6.60
2018-11-05T00:46:26.278Z,6.60
2018-11-05T00:48:55.226Z,6.70
2018-11-05T00:51:24.613Z,6.70
2018-11-05T00:53:53.602Z,6.60
2018-11-05T00:56:22.577Z,6.50
2018-11-05T00:58:51.628Z,6.50
2018-11-05T01:01:21.623Z,6.40
2018-11-05T01:03:50.550Z,6.50
2018-11-05T01:06:19.481Z,6.40
2018-11-05T01:08:48.446Z,6.40
2018-11-05T01:11:17.353Z,6.40
2018-11-05T01:13:46.278Z,6.40
2018-11-05T01:16:15.259Z,6.40
2018-11-05T01:18:44.842Z,6.40
2018-11-05T01:21:13.761Z,6.40
2018-11-05T01:23:42.714Z,6.30
2018-11-05T01:26:11.833Z,6.20
2018-11-05T01:28:41.081Z,6.20
2018-11-05T01:31:10.074Z,6.10
2018-11-05T01:33:39.036Z,6.00
2018-11-05T01:36:07.970Z,5.90
2018-11-05T01:38:36.901Z,5.90
2018-11-05T01:41:05.880Z,5.90
2018-11-05T01:43:34.765Z,5.90
2018-11-05T01:46:03.706Z,5.90
2018-11-05T01:48:32.834Z,5.80
2018-11-05T01:51:01.794Z,5.80
2018-11-05T01:53:31.778Z,5.80
2018-11-05T01:56:00.684Z,5.90
2018-11-05T01:58:29.780Z,5.90
2018-11-05T02:00:58.843Z,6.00
2018-11-05T02:03:27.742Z,6.00
2018-11-05T02:05:56.821Z,6.00
2018-11-05T02:08:25.733Z,6.00
2018-11-05T02:10:54.806Z,6.10
2018-11-05T02:13:23.780Z,6.00
2018-11-05T02:15:52.665Z,6.10
2018-11-05T02:18:21.650Z,6.10
2018-11-05T02:20:50.617Z,6.00
2018-11-05T02:23:19.510Z,6.10
2018-11-05T02:25:48.410Z,6.00
2018-11-05T02:28:17.335Z,6.10
2018-11-05T02:30:46.274Z,6.00
2018-11-05T02:33:15.384Z,6.10
2018-11-05T02:35:44.299Z,6.10
2018-11-05T02:38:13.236Z,6.30
2018-11-05T02:40:42.310Z,6.30
2018-11-05T02:43:11.241Z,6.20
2018-11-05T02:45:40.178Z,6.30
2018-11-05T02:48:10.172Z,6.30
2018-11-05T02:50:40.185Z,6.30
2018-11-05T02:53:09.257Z,6.30
2018-11-05T02:55:38.253Z,6.20
2018-11-05T02:58:07.272Z,6.10
2018-11-05T03:00:36.220Z,6.10
2018-11-05T03:03:05.139Z,6.10
2018-11-05T03:05:34.105Z,6.00
2018-11-05T03:08:03.040Z,6.00
2018-11-05T03:10:31.956Z,6.00
2018-11-05T03:13:00.846Z,6.00
2018-11-05T03:15:29.835Z,6.00
2018-11-05T03:17:58.806Z,5.90
2018-11-05T03:20:27.709Z,5.90
2018-11-05T03:22:56.712Z,5.90
2018-11-05T03:25:25.629Z,5.90
2018-11-05T03:27:54.846Z,5.80
2018-11-05T03:30:23.771Z,5.80
2018-11-05T03:32:52.666Z,5.90
2018-11-05T03:35:21.582Z,5.80
2018-11-05T03:37:50.513Z,5.80
2018-11-05T03:40:19.453Z,5.80
2018-11-05T03:42:48.354Z,5.80
2018-11-05T03:45:17.522Z,5.80
2018-11-05T03:47:46.466Z,5.70
2018-11-05T03:50:17.030Z,5.70
2018-11-05T03:52:46.729Z,5.60
2018-11-05T03:55:16.747Z,5.60
2018-11-05T03:57:45.646Z,5.60
2018-11-05T04:00:15.681Z,5.50
2018-11-05T04:02:44.618Z,5.50
2018-11-05T04:05:13.907Z,5.50
2018-11-05T04:07:42.866Z,5.50
2018-11-05T04:10:12.829Z,5.40
2018-11-05T04:12:41.792Z,5.40
2018-11-05T04:15:11.055Z,5.40
2018-11-05T04:17:39.994Z,5.30
2018-11-05T04:20:10.559Z,5.40
2018-11-05T04:22:39.651Z,5.40
2018-11-05T04:25:08.606Z,5.40
2018-11-05T04:27:37.657Z,5.40
2018-11-05T04:30:09.726Z,5.40
2018-11-05T04:32:38.715Z,5.40
2018-11-05T04:35:07.939Z,5.40
2018-11-05T04:37:36.934Z,5.40
2018-11-05T04:40:06.693Z,5.50
2018-11-05T04:42:35.724Z,5.50
2018-11-05T04:45:05.761Z,5.50
2018-11-05T04:47:34.742Z,5.50
2018-11-05T04:50:04.846Z,5.50
2018-11-05T04:52:33.782Z,5.50
2018-11-05T04:55:02.746Z,5.50
2018-11-05T04:57:31.878Z,5.50
2018-11-05T05:00:05.058Z,5.50
2018-11-05T05:02:34.113Z,5.50
2018-11-05T05:05:03.253Z,5.50
2018-11-05T05:07:32.250Z,5.50
2018-11-05T05:10:01.349Z,5.50
2018-11-05T05:12:30.321Z,5.50
2018-11-05T05:14:59.665Z,5.50
2018-11-05T05:17:28.684Z,5.60
2018-11-05T05:19:57.615Z,5.60
2018-11-05T05:22:26.769Z,5.60
2018-11-05T05:24:55.715Z,5.60
2018-11-05T05:27:24.753Z,5.60
2018-11-05T05:29:53.740Z,5.60
2018-11-05T05:32:22.674Z,5.60
2018-11-05T05:34:51.646Z,5.60
2018-11-05T05:37:20.630Z,5.60
2018-11-05T05:39:49.910Z,5.60
2018-11-05T05:42:18.961Z,5.60
2018-11-05T05:44:47.932Z,5.60
2018-11-05T05:47:16.921Z,5.60
2018-11-05T05:49:46.006Z,5.60
2018-11-05T05:52:14.955Z,5.60
2018-11-05T05:54:43.997Z,5.70
2018-11-05T05:57:14.005Z,5.60
2018-11-05T05:59:43.136Z,5.70
2018-11-05T06:02:12.074Z,5.70
2018-11-05T06:04:41.406Z,5.70
2018-11-05T06:07:10.482Z,5.70
2018-11-05T06:09:39.545Z,5.70
2018-11-05T06:12:08.549Z,5.70
2018-11-05T06:14:37.497Z,5.70
2018-11-05T06:17:06.494Z,5.70
2018-11-05T06:19:35.795Z,5.70
2018-11-05T06:22:06.250Z,5.70
2018-11-05T06:24:35.213Z,5.70
2018-11-05T06:27:04.310Z,5.70
2018-11-05T06:29:33.382Z,5.70
2018-11-05T06:32:02.325Z,5.70
2018-11-05T06:34:31.289Z,5.70
2018-11-05T06:37:00.722Z,5.70
2018-11-05T06:39:29.881Z,5.70
2018-11-05T06:41:58.967Z,5.70
2018-11-05T06:44:27.845Z,5.70
2018-11-05T06:46:56.807Z,5.70
2018-11-05T06:49:25.913Z,5.70
2018-11-05T06:51:54.930Z,5.70
2018-11-05T06:54:23.893Z,5.70
2018-11-05T06:56:52.890Z,5.80
2018-11-05T06:59:22.205Z,5.80
2018-11-05T07:01:51.242Z,5.90
2018-11-05T07:04:20.369Z,6.00
2018-11-05T07:06:50.508Z,6.10
2018-11-05T07:09:19.482Z,6.10
2018-11-05T07:11:48.574Z,6.20
2018-11-05T07:14:17.665Z,6.20
2018-11-05T07:16:46.626Z,6.30
2018-11-05T07:19:15.710Z,6.30
2018-11-05T07:21:44.486Z,6.40
2018-11-05T07:24:13.433Z,6.40
2018-11-05T07:26:42.526Z,6.40
2018-11-05T07:29:11.590Z,6.50
2018-11-05T07:31:40.564Z,6.50
2018-11-05T07:34:09.500Z,6.60
2018-11-05T07:36:38.593Z,6.60
2018-11-05T07:39:09.284Z,6.60
2018-11-05T07:41:38.933Z,6.70
2018-11-05T07:44:08.029Z,6.70
2018-11-05T07:46:37.163Z,6.80
2018-11-05T07:49:06.166Z,6.80
2018-11-05T07:51:35.582Z,6.80
2018-11-05T07:54:04.755Z,6.90
2018-11-05T07:56:33.796Z,6.90
2018-11-05T07:59:03.817Z,6.90
2018-11-05T08:01:32.774Z,7.00
2018-11-05T08:04:01.721Z,7.10
2018-11-05T08:06:30.670Z,7.10
2018-11-05T08:09:00.721Z,7.10
2018-11-05T08:11:29.817Z,7.20
2018-11-05T08:13:58.797Z,7.20
2018-11-05T08:16:27.737Z,7.30
2018-11-05T08:18:56.697Z,7.30
2018-11-05T08:21:25.667Z,7.40
2018-11-05T08:23:54.651Z,7.40
2018-11-05T08:26:23.646Z,7.30
2018-11-05T08:28:52.718Z,7.40
2018-11-05T08:31:22.917Z,7.40
2018-11-05T08:33:52.050Z,7.40
2018-11-05T08:36:21.010Z,7.40
2018-11-05T08:38:50.105Z,7.50
2018-11-05T08:41:19.230Z,7.50
2018-11-05T08:43:48.197Z,7.50
2018-11-05T08:46:17.438Z,7.50
2018-11-05T08:48:46.414Z,7.60
2018-11-05T08:51:15.543Z,7.70
2018-11-05T08:53:44.397Z,7.70
2018-11-05T08:56:13.417Z,7.80
2018-11-05T08:58:42.399Z,7.70
2018-11-05T09:01:16.291Z,7.80
2018-11-05T09:03:46.385Z,7.90
2018-11-05T09:06:15.777Z,7.90
2018-11-05T09:08:45.269Z,8.00
2018-11-05T09:11:14.771Z,8.00
2018-11-05T09:13:43.458Z,8.10
2018-11-05T09:16:12.672Z,8.10
2018-11-05T09:18:41.684Z,8.10
2018-11-05T09:21:10.783Z,8.10
2018-11-05T09:23:39.779Z,8.10
2018-11-05T09:26:08.832Z,8.20
2018-11-05T09:28:37.953Z,8.20
2018-11-05T09:31:07.083Z,8.30
2018-11-05T09:33:36.056Z,8.30
2018-11-05T09:36:05.049Z,8.40
2018-11-05T09:38:34.018Z,8.40
2018-11-05T09:41:03.099Z,8.50
2018-11-05T09:43:32.029Z,8.50
2018-11-05T09:46:01.126Z,8.60
2018-11-05T09:48:30.134Z,8.60
2018-11-05T09:50:59.216Z,8.70
2018-11-05T09:53:28.189Z,8.70
2018-11-05T09:55:57.174Z,8.80
2018-11-05T09:58:26.155Z,8.80
2018-11-05T10:00:55.137Z,8.90
2018-11-05T10:03:24.320Z,9.00
2018-11-05T10:05:53.102Z,9.00
2018-11-05T10:08:22.242Z,9.10
2018-11-05T10:10:51.233Z,9.20
2018-11-05T10:13:20.156Z,9.20
2018-11-05T10:15:49.314Z,9.20
2018-11-05T10:18:18.278Z,9.30
2018-11-05T10:20:47.230Z,9.40
2018-11-05T10:23:16.443Z,9.50
2018-11-05T10:25:45.431Z,9.50
2018-11-05T10:28:14.626Z,9.50
2018-11-05T10:30:43.754Z,9.50
2018-11-05T10:33:12.855Z,9.60
2018-11-05T10:35:47.283Z,9.70
2018-11-05T10:38:16.256Z,9.80
2018-11-05T10:40:45.280Z,9.90
2018-11-05T10:43:14.249Z,10.00
2018-11-05T10:45:43.263Z,10.20
2018-11-05T10:48:12.274Z,10.30
2018-11-05T10:50:41.524Z,10.30
2018-11-05T10:53:10.382Z,10.40
2018-11-05T10:55:39.349Z,10.50
2018-11-05T10:58:08.334Z,10.50
2018-11-05T11:00:42.758Z,10.60
2018-11-05T11:03:14.919Z,10.80
2018-11-05T11:05:43.894Z,10.80
2018-11-05T11:08:12.910Z,10.90
2018-11-05T11:10:41.917Z,11.00
2018-11-05T11:13:11.038Z,11.00
2018-11-05T11:15:39.985Z,11.00
2018-11-05T11:18:09.148Z,10.90
2018-11-05T11:20:38.228Z,10.90
2018-11-05T11:23:07.302Z,11.00
2018-11-05T11:25:36.417Z,11.10
2018-11-05T11:28:05.860Z,11.20
2018-11-05T11:30:34.634Z,11.30
2018-11-05T11:33:03.650Z,11.40
2018-11-05T11:35:32.617Z,11.50
2018-11-05T11:38:02.006Z,11.50
2018-11-05T11:40:31.097Z,11.50
2018-11-05T11:43:00.149Z,11.50
2018-11-05T11:45:30.171Z,11.60
2018-11-05T11:47:59.186Z,11.60
2018-11-05T11:50:28.296Z,11.60
2018-11-05T11:52:57.450Z,11.50
2018-11-05T11:55:26.476Z,11.50
2018-11-05T11:57:55.408Z,11.60
2018-11-05T12:00:25.517Z,11.70
2018-11-05T12:02:54.954Z,11.70
2018-11-05T12:05:23.898Z,11.70
2018-11-05T12:07:52.767Z,11.70
2018-11-05T12:10:23.166Z,11.70
2018-11-05T12:12:52.136Z,11.80
2018-11-05T12:15:21.849Z,11.90
2018-11-05T12:17:52.288Z,11.90
2018-11-05T12:20:22.597Z,12.00
2018-11-05T12:22:52.006Z,12.10
2018-11-05T12:25:21.018Z,12.20
2018-11-05T12:27:50.000Z,12.20
2018-11-05T12:30:21.148Z,12.20
2018-11-05T12:32:50.955Z,12.20
2018-11-05T12:35:19.931Z,12.20
2018-11-05T12:37:50.066Z,12.20
2018-11-05T12:40:20.062Z,12.10
2018-11-05T12:42:49.785Z,12.00
2018-11-05T12:45:18.843Z,12.10
2018-11-05T12:47:48.817Z,12.10
2018-11-05T12:50:21.669Z,12.00
2018-11-05T12:52:51.787Z,12.00
2018-11-05T12:55:20.930Z,12.00
2018-11-05T12:57:49.946Z,12.00
2018-11-05T13:00:20.627Z,11.90
2018-11-05T13:02:54.619Z,12.10
2018-11-05T13:05:24.482Z,12.10
2018-11-05T13:07:53.474Z,12.10
2018-11-05T13:10:22.597Z,12.10
2018-11-05T13:12:51.539Z,12.00
2018-11-05T13:15:20.591Z,11.90
2018-11-05T13:17:49.614Z,11.90
2018-11-05T13:20:19.797Z,11.90
2018-11-05T13:22:48.940Z,11.90
2018-11-05T13:25:17.894Z,11.80
2018-11-05T13:27:48.105Z,11.90
2018-11-05T13:30:17.618Z,11.90
2018-11-05T13:32:46.877Z,11.90
2018-11-05T13:35:17.129Z,12.00
2018-11-05T13:37:46.408Z,12.00
2018-11-05T13:40:16.556Z,12.00
2018-11-05T13:42:46.261Z,12.00
2018-11-05T13:45:15.703Z,12.10
2018-11-05T13:47:45.367Z,12.20
2018-11-05T13:50:14.371Z,12.20
2018-11-05T13:52:43.157Z,12.10
2018-11-05T13:55:13.472Z,12.10
2018-11-05T13:57:43.706Z,12.10
2018-11-05T14:00:14.224Z,12.10
2018-11-05T14:02:43.217Z,12.10
2018-11-05T14:05:12.612Z,12.10
2018-11-05T14:07:41.893Z,12.20
2018-11-05T14:10:14.180Z,12.10
2018-11-05T14:12:44.658Z,12.20
2018-11-05T14:15:13.582Z,12.20
2018-11-05T14:17:43.230Z,12.10
2018-11-05T14:20:13.391Z,12.10
2018-11-05T14:22:42.985Z,12.00
2018-11-05T14:25:13.243Z,12.00
2018-11-05T14:27:43.502Z,12.00
2018-11-05T14:30:13.266Z,12.00
2018-11-05T14:32:44.532Z,12.10
2018-11-05T14:35:13.562Z,12.10
2018-11-05T14:37:42.694Z,12.20
2018-11-05T14:40:13.530Z,12.30
2018-11-05T14:42:42.675Z,12.30
2018-11-05T14:45:13.722Z,12.40
2018-11-05T14:47:43.897Z,12.40
2018-11-05T14:50:14.706Z,12.40
2018-11-05T14:52:43.872Z,12.50
2018-11-05T14:55:15.585Z,12.50
2018-11-05T14:57:45.491Z,12.50
2018-11-05T15:00:16.559Z,12.60
2018-11-05T15:02:46.535Z,12.60
2018-11-05T15:05:15.950Z,12.60
2018-11-05T15:07:46.053Z,12.60
2018-11-05T15:10:16.442Z,12.50
2018-11-05T15:12:45.515Z,12.50
2018-11-05T15:15:15.073Z,12.50
2018-11-05T15:17:44.691Z,12.50
2018-11-05T15:20:15.080Z,12.50
2018-11-05T15:22:43.805Z,12.40
2018-11-05T15:25:13.335Z,12.30
2018-11-05T15:27:42.442Z,12.30
2018-11-05T15:30:14.595Z,12.20
2018-11-05T15:32:43.897Z,12.20
2018-11-05T15:35:12.997Z,12.10
2018-11-05T15:37:42.840Z,12.10
2018-11-05T15:40:13.811Z,12.00
2018-11-05T15:42:43.082Z,11.90
2018-11-05T15:45:13.654Z,11.80
2018-11-05T15:47:43.201Z,11.70
2018-11-05T15:50:14.719Z,11.70
2018-11-05T15:52:44.292Z,11.60
2018-11-05T15:55:13.281Z,11.40
2018-11-05T15:57:43.558Z,11.30
2018-11-05T16:00:16.128Z,11.30
2018-11-05T16:02:46.559Z,11.10
2018-11-05T16:05:15.659Z,11.00
2018-11-05T16:07:45.006Z,10.90
2018-11-05T16:10:14.200Z,10.80
2018-11-05T16:12:43.241Z,10.80
2018-11-05T16:15:13.138Z,10.80
2018-11-05T16:17:42.165Z,10.80
2018-11-05T16:20:20.009Z,10.70
2018-11-05T16:22:49.910Z,10.70
2018-11-05T16:25:18.954Z,10.60
2018-11-05T16:27:48.111Z,10.50
2018-11-05T16:30:19.748Z,10.60
2018-11-05T16:32:49.338Z,10.50
2018-11-05T16:35:18.369Z,10.50
2018-11-05T16:37:47.336Z,10.50
2018-11-05T16:40:17.538Z,10.50
2018-11-05T16:42:47.649Z,10.50
2018-11-05T16:45:16.802Z,10.50
2018-11-05T16:47:46.020Z,10.40
2018-11-05T16:50:26.334Z,10.50
2018-11-05T16:52:55.607Z,10.40
2018-11-05T16:55:25.059Z,10.40
2018-11-05T16:57:54.101Z,10.40
2018-11-05T17:00:23.046Z,10.40
2018-11-05T17:02:52.048Z,10.40
2018-11-05T17:05:20.995Z,10.50
2018-11-05T17:07:50.094Z,10.50
2018-11-05T17:10:19.204Z,10.50
2018-11-05T17:12:48.294Z,10.50
2018-11-05T17:15:17.557Z,10.50
2018-11-05T17:17:46.693Z,10.40
2018-11-05T17:20:17.292Z,10.40
2018-11-05T17:22:46.426Z,10.40
2018-11-05T17:25:15.971Z,10.40
2018-11-05T17:27:45.681Z,10.40
2018-11-05T17:30:17.251Z,10.40
2018-11-05T17:32:46.350Z,10.40
2018-11-05T17:35:15.844Z,10.30
2018-11-05T17:37:45.547Z,10.30
2018-11-05T17:40:15.852Z,10.30
2018-11-05T17:42:44.749Z,10.30
2018-11-05T17:45:15.257Z,10.30
2018-11-05T17:47:44.627Z,10.20
2018-11-05T17:50:15.057Z,10.20
2018-11-05T17:52:44.440Z,10.20
2018-11-05T17:55:14.037Z,10.20
2018-11-05T17:57:44.130Z,10.20
2018-11-05T18:00:14.907Z,10.10
2018-11-05T18:02:44.031Z,10.10
2018-11-05T18:05:13.353Z,10.00
2018-11-05T18:07:43.713Z,10.00
2018-11-05T18:10:12.926Z,10.00
2018-11-05T18:12:42.925Z,10.10
2018-11-05T18:15:12.529Z,10.00
2018-11-05T18:17:42.317Z,10.10
2018-11-05T18:20:12.502Z,10.00
2018-11-05T18:22:41.834Z,10.10
2018-11-05T18:25:13.286Z,10.20
2018-11-05T18:27:42.384Z,10.10
2018-11-05T18:30:12.447Z,10.10
2018-11-05T18:32:41.504Z,10.10
2018-11-05T18:35:12.070Z,10.00
2018-11-05T18:37:41.833Z,10.00
2018-11-05T18:40:12.654Z,10.00
2018-11-05T18:42:42.263Z,10.00
2018-11-05T18:45:11.804Z,9.90
2018-11-05T18:47:40.843Z,9.90
2018-11-05T18:50:11.547Z,10.00
2018-11-05T18:52:40.798Z,10.00
2018-11-05T18:55:11.209Z,10.00
2018-11-05T18:57:40.624Z,9.90
2018-11-05T19:00:17.918Z,9.90
2018-11-05T19:02:47.401Z,9.90
2018-11-05T19:05:16.730Z,9.90
2018-11-05T19:07:46.010Z,9.90
2018-11-05T19:10:14.949Z,9.90
2018-11-05T19:12:43.922Z,9.90
2018-11-05T19:15:14.199Z,9.90
2018-11-05T19:17:44.230Z,9.80
2018-11-05T19:20:13.322Z,9.80
2018-11-05T19:22:42.919Z,9.80
2018-11-05T19:25:12.954Z,9.70
2018-11-05T19:27:42.350Z,9.70
2018-11-05T19:30:14.823Z,9.60
2018-11-05T19:32:45.238Z,9.60
2018-11-05T19:35:14.196Z,9.50
2018-11-05T19:37:44.263Z,9.50
2018-11-05T19:40:14.181Z,9.40
2018-11-05T19:42:44.257Z,9.40
2018-11-05T19:45:15.032Z,9.40
2018-11-05T19:47:44.150Z,9.30
2018-11-05T19:50:15.132Z,9.30
2018-11-05T19:52:46.073Z,9.30
2018-11-05T19:55:16.105Z,9.20
2018-11-05T19:57:45.750Z,9.20
2018-11-05T20:00:15.689Z,9.10
2018-11-05T20:02:45.250Z,9.10
2018-11-05T20:05:14.720Z,9.10
2018-11-05T20:07:44.214Z,9.10
2018-11-05T20:10:14.107Z,9.00
2018-11-05T20:12:44.071Z,9.00
2018-11-05T20:15:13.092Z,9.00
2018-11-05T20:17:43.205Z,9.00
2018-11-05T20:20:13.454Z,9.00
2018-11-05T20:22:42.596Z,9.00
2018-11-05T20:25:11.763Z,8.90
2018-11-05T20:27:41.493Z,8.90
2018-11-05T20:30:14.383Z,8.90
2018-11-05T20:32:44.421Z,8.90
2018-11-05T20:35:13.210Z,8.90
2018-11-05T20:37:42.207Z,8.80
2018-11-05T20:40:13.284Z,8.80
2018-11-05T20:42:43.432Z,8.70
2018-11-05T20:45:12.849Z,8.70
2018-11-05T20:47:42.057Z,8.60
2018-11-05T20:50:11.825Z,8.60
2018-11-05T20:52:40.982Z,8.50
2018-11-05T20:55:11.259Z,8.40
2018-11-05T20:57:41.282Z,8.40
2018-11-05T21:00:11.952Z,8.40
2018-11-05T21:02:41.389Z,8.40
2018-11-05T21:05:10.496Z,8.40
2018-11-05T21:07:40.513Z,8.30
2018-11-05T21:10:10.925Z,8.20
2018-11-05T21:12:40.642Z,8.20
2018-11-05T21:15:14.945Z,8.20
2018-11-05T21:17:44.871Z,8.20
2018-11-05T21:20:14.247Z,8.10
2018-11-05T21:22:43.606Z,8.10
2018-11-05T21:25:12.462Z,8.10
2018-11-05T21:27:42.371Z,8.10
2018-11-05T21:30:13.572Z,8.10
2018-11-05T21:32:42.659Z,8.20
2018-11-05T21:35:13.698Z,8.20
2018-11-05T21:37:43.073Z,8.30
2018-11-05T21:40:13.254Z,8.30
2018-11-05T21:42:43.303Z,8.30
2018-11-05T21:45:14.215Z,8.40
2018-11-05T21:47:43.923Z,8.40
2018-11-05T21:50:14.519Z,8.40
2018-11-05T21:52:44.086Z,8.40
2018-11-05T21:55:13.079Z,8.40
2018-11-05T21:57:43.249Z,8.40
2018-11-05T22:00:15.185Z,8.40
2018-11-05T22:02:49.780Z,8.40
2018-11-05T22:05:18.751Z,8.40
2018-11-05T22:07:49.062Z,8.40
2018-11-05T22:10:18.015Z,8.30
2018-11-05T22:12:47.574Z,8.30
2018-11-05T22:15:16.562Z,8.20
2018-11-05T22:17:45.749Z,8.10
2018-11-05T22:20:15.888Z,8.10
2018-11-05T22:22:45.094Z,8.00
2018-11-05T22:25:13.906Z,7.90
2018-11-05T22:27:43.054Z,7.90
2018-11-05T22:30:12.550Z,7.90
2018-11-05T22:32:41.515Z,7.80
2018-11-05T22:35:10.481Z,7.90
2018-11-05T22:37:39.447Z,7.80
2018-11-05T22:40:10.749Z,7.80
2018-11-05T22:42:39.852Z,7.80
2018-11-05T22:45:09.772Z,7.80
2018-11-05T22:47:38.870Z,7.80
2018-11-05T22:50:08.418Z,7.80
2018-11-05T22:52:38.027Z,7.80
2018-11-05T22:55:07.278Z,7.80
2018-11-05T22:57:37.246Z,7.80
2018-11-05T23:00:13.425Z,7.80
2018-11-05T23:02:46.535Z,7.80
2018-11-05T23:05:15.631Z,7.80
2018-11-05T23:07:44.731Z,7.80
2018-11-05T23:10:13.906Z,7.80
2018-11-05T23:12:42.908Z,7.70
2018-11-05T23:15:11.889Z,7.70
2018-11-05T23:17:40.869Z,7.70
2018-11-05T23:20:11.450Z,7.60
2018-11-05T23:22:41.241Z,7.60
2018-11-05T23:25:10.484Z,7.60
2018-11-05T23:27:39.878Z,7.70
2018-11-05T23:30:10.656Z,7.70
2018-11-05T23:32:40.258Z,7.70
2018-11-05T23:35:09.963Z,7.60
2018-11-05T23:37:39.760Z,7.60
2018-11-05T23:40:09.193Z,7.50
2018-11-05T23:42:38.874Z,7.40
2018-11-05T23:45:11.145Z,7.40
2018-11-05T23:47:40.205Z,7.40
2018-11-05T23:50:10.203Z,7.40
2018-11-05T23:52:39.251Z,7.40
2018-11-05T23:55:09.158Z,7.30
2018-11-05T23:57:38.211Z,7.30
